Time;durP1;ratioP1;P1;durP2;ratioP2;P2;SDS_P1;SDS_P2;PMS_P1;PMS_P2;Temp;Humidity;BMP_temperature;BMP_pressure;BME280_temperature;BME280_humidity;BME280_pressure;Samples;Min_cycle;Max_cycle;Signal;HPM_P1;HPM_P2
2023/09/04 00:00:11;;;;;;;2.63;1.58;;;;;;;23.73;51.81;102893.44;4985936;28;20506;-34
2023/09/04 00:02:38;;;;;;;2.95;2.08;;;;;;;23.71;51.37;102896.25;4985313;28;20417;-34
2023/09/04 00:05:05;;;;;;;2.72;1.70;;;;;;;23.70;51.47;102891.84;4983066;28;20050;-35
2023/09/04 00:07:31;;;;;;;2.30;1.75;;;;;;;23.69;51.27;102898.28;4983190;28;20058;-35
2023/09/04 00:09:58;;;;;;;2.67;1.90;;;;;;;23.69;51.16;102892.00;4985680;28;20137;-34
2023/09/04 00:12:25;;;;;;;2.47;1.80;;;;;;;23.68;51.91;102895.69;4988750;28;20141;-35
2023/09/04 00:14:52;;;;;;;2.38;1.95;;;;;;;23.66;51.73;102895.84;4984354;28;20046;-34
2023/09/04 00:17:18;;;;;;;2.78;1.90;;;;;;;23.66;51.42;102903.13;4983361;28;20059;-35
2023/09/04 00:19:45;;;;;;;2.58;1.52;;;;;;;23.63;51.84;102898.78;4980842;28;20493;-35
2023/09/04 00:22:12;;;;;;;2.15;1.60;;;;;;;23.62;51.84;102892.53;4982558;28;20168;-34
2023/09/04 00:24:39;;;;;;;3.50;1.77;;;;;;;23.60;51.60;102891.81;4983021;28;20383;-34
2023/09/04 00:27:05;;;;;;;1.90;1.70;;;;;;;23.60;51.30;102893.69;4984451;28;20162;-34
2023/09/04 00:29:32;;;;;;;2.17;1.50;;;;;;;23.59;51.48;102895.50;4984867;28;20101;-34
2023/09/04 00:31:58;;;;;;;2.58;1.77;;;;;;;23.57;51.57;102896.66;4984806;28;20121;-34
2023/09/04 00:34:25;;;;;;;1.85;1.48;;;;;;;23.56;51.98;102895.81;4984993;28;20109;-34
2023/09/04 00:36:52;;;;;;;2.55;1.77;;;;;;;23.55;51.68;102888.66;4983891;28;20054;-34
2023/09/04 00:39:18;;;;;;;2.33;1.75;;;;;;;23.54;51.84;102899.63;4985079;28;20465;-36
2023/09/04 00:41:46;;;;;;;2.63;1.98;;;;;;;23.53;51.83;102900.66;4982831;28;20437;-35
2023/09/04 00:44:12;;;;;;;2.00;1.80;;;;;;;23.50;51.88;102896.34;4983245;28;20129;-35
2023/09/04 00:46:41;;;;;;;2.50;1.65;;;;;;;23.49;51.81;102894.66;4982520;28;20497;-33
2023/09/04 00:49:09;;;;;;;2.10;1.55;;;;;;;23.49;51.73;102893.81;4982380;28;20134;-35
2023/09/04 00:51:36;;;;;;;2.00;1.48;;;;;;;23.47;51.90;102899.34;4981708;28;20428;-35
2023/09/04 00:54:03;;;;;;;2.00;1.52;;;;;;;23.47;51.53;102901.19;4981489;28;20078;-34
2023/09/04 00:56:30;;;;;;;1.80;1.60;;;;;;;23.45;51.46;102895.06;4982945;28;20121;-35
2023/09/04 00:58:57;;;;;;;1.92;1.48;;;;;;;23.45;51.99;102904.03;4982645;28;20113;-34
2023/09/04 01:01:24;;;;;;;1.77;1.42;;;;;;;23.44;51.83;102896.03;4979940;28;20057;-34
2023/09/04 01:03:50;;;;;;;1.92;1.52;;;;;;;23.43;51.89;102888.94;4982241;28;20043;-35
2023/09/04 01:06:17;;;;;;;2.70;1.77;;;;;;;23.41;52.19;102899.91;5001019;28;20081;-35
2023/09/04 01:08:44;;;;;;;2.15;1.50;;;;;;;23.39;51.69;102905.44;4983608;28;20516;-35
2023/09/04 01:11:24;;;;;;;2.03;1.55;;;;;;;23.37;51.82;102895.78;4985955;28;20395;-35
2023/09/04 01:13:53;;;;;;;2.13;1.73;;;;;;;23.37;52.33;102904.75;4983800;28;20489;-35
2023/09/04 01:16:22;;;;;;;3.38;1.90;;;;;;;23.36;51.66;102904.91;4982127;28;20046;-35
2023/09/04 01:18:50;;;;;;;2.35;1.75;;;;;;;23.35;51.54;102897.75;4985086;28;20126;-35
2023/09/04 01:21:17;;;;;;;2.58;1.65;;;;;;;23.32;52.06;102909.72;4984659;28;20064;-35
2023/09/04 01:23:44;;;;;;;2.13;1.23;;;;;;;23.32;52.07;102908.88;4983408;28;20101;-35
2023/09/04 01:26:29;;;;;;;2.20;1.38;;;;;;;23.30;51.91;102908.13;4982864;28;20464;-33
2023/09/04 01:29:14;;;;;;;2.28;1.67;;;;;;;23.30;51.93;102908.13;4984735;28;20050;-34
2023/09/04 01:32:03;;;;;;;1.67;1.50;;;;;;;23.26;52.30;102901.28;4985265;28;20079;-34
2023/09/04 01:34:32;;;;;;;1.77;1.30;;;;;;;23.27;52.15;102900.28;4984949;28;20441;-34
2023/09/04 01:37:00;;;;;;;2.70;1.50;;;;;;;23.27;52.10;102900.28;4985320;28;20054;-34
2023/09/04 01:39:29;;;;;;;1.40;1.13;;;;;;;23.26;51.92;102902.16;4982972;28;20422;-34
2023/09/04 01:41:55;;;;;;;1.50;1.40;;;;;;;23.24;52.25;102896.03;4981940;28;20108;-34
2023/09/04 01:44:22;;;;;;;2.10;1.45;;;;;;;23.24;52.08;102887.06;4983764;28;20537;-34
2023/09/04 01:46:49;;;;;;;2.50;1.50;;;;;;;23.23;52.23;102886.19;4988612;28;20046;-34
2023/09/04 01:49:16;;;;;;;1.80;1.38;;;;;;;23.22;51.67;102891.75;4983387;28;20053;-34
2023/09/04 01:51:42;;;;;;;1.95;1.33;;;;;;;23.22;52.19;102886.31;4985833;28;20054;-34
2023/09/04 01:54:09;;;;;;;1.75;1.30;;;;;;;23.22;52.10;102886.31;4982986;28;20108;-34
2023/09/04 01:56:36;;;;;;;2.00;1.42;;;;;;;23.21;52.19;102890.03;4981796;28;20047;-34
2023/09/04 01:59:03;;;;;;;1.40;1.10;;;;;;;23.20;52.40;102889.19;4981811;28;20050;-34
2023/09/04 02:01:29;;;;;;;1.42;1.15;;;;;;;23.19;51.92;102882.03;4982478;28;20054;-34
2023/09/04 02:03:57;;;;;;;1.85;1.50;;;;;;;23.19;52.08;102889.31;4980407;28;20078;-34
2023/09/04 02:06:26;;;;;;;2.30;1.40;;;;;;;23.16;52.10;102882.34;4979280;28;20047;-34
2023/09/04 02:08:52;;;;;;;3.67;1.33;;;;;;;23.17;52.31;102877.78;4978778;28;20123;-34
2023/09/04 02:11:19;;;;;;;1.70;1.38;;;;;;;23.14;52.21;102874.34;4985275;28;20139;-34
2023/09/04 02:13:46;;;;;;;1.65;1.27;;;;;;;23.14;51.84;102865.38;4984440;28;20097;-34
2023/09/04 02:16:12;;;;;;;2.28;1.30;;;;;;;23.13;52.29;102867.22;4986665;28;20082;-34
2023/09/04 02:18:39;;;;;;;1.60;1.13;;;;;;;23.12;52.19;102861.97;4986554;28;20050;-34
2023/09/04 02:21:06;;;;;;;2.22;1.65;;;;;;;23.11;52.00;102861.09;4985409;28;20303;-34
2023/09/04 02:23:33;;;;;;;1.38;1.00;;;;;;;23.11;51.74;102866.50;4984126;28;20057;-34
2023/09/04 02:26:00;;;;;;;1.67;1.25;;;;;;;23.09;51.77;102857.69;4983172;28;20501;-33
2023/09/04 02:28:27;;;;;;;1.55;1.17;;;;;;;23.08;52.01;102855.13;4987673;28;20210;-34
2023/09/04 02:30:53;;;;;;;1.50;1.02;;;;;;;23.09;51.89;102862.25;4987820;28;20082;-34
2023/09/04 02:33:20;;;;;;;2.17;1.10;;;;;;;23.06;52.53;102855.25;4983784;28;20423;-34
2023/09/04 02:35:46;;;;;;;2.05;1.35;;;;;;;23.06;51.93;102857.09;4985080;28;20133;-34
2023/09/04 02:38:13;;;;;;;1.77;1.20;;;;;;;23.04;52.11;102850.97;4984478;28;20046;-34
2023/09/04 02:40:40;;;;;;;1.52;1.15;;;;;;;23.03;52.08;102855.50;4989016;28;20336;-34
2023/09/04 02:43:07;;;;;;;1.58;1.20;;;;;;;23.03;52.48;102854.66;4992104;28;20054;-34
2023/09/04 02:45:33;;;;;;;2.40;1.42;;;;;;;23.01;52.16;102857.50;4988376;28;20077;-34
2023/09/04 02:48:00;;;;;;;1.60;1.25;;;;;;;23.00;52.47;102857.66;4988517;28;20133;-34
2023/09/04 02:50:27;;;;;;;1.10;1.00;;;;;;;22.98;52.18;102846.13;4983178;28;20049;-33
2023/09/04 02:52:53;;;;;;;1.55;1.27;;;;;;;22.96;52.47;102848.97;4984583;28;20062;-34
2023/09/04 02:55:20;;;;;;;1.40;1.30;;;;;;;22.96;52.58;102854.38;4981389;28;20136;-33
2023/09/04 02:57:46;;;;;;;1.27;1.00;;;;;;;22.93;52.17;102841.13;4986533;28;20133;-33
2023/09/04 03:00:13;;;;;;;1.40;1.20;;;;;;;22.92;52.62;102852.94;4988794;28;20101;-33
2023/09/04 03:02:40;;;;;;;2.08;1.10;;;;;;;22.92;52.08;102842.13;4987812;28;20109;-34
2023/09/04 03:05:07;;;;;;;1.63;1.15;;;;;;;22.91;52.56;102845.78;4983730;28;20060;-33
2023/09/04 03:07:33;;;;;;;1.25;1.08;;;;;;;22.90;52.63;102844.94;4986336;28;20378;-34
2023/09/04 03:10:01;;;;;;;1.42;1.20;;;;;;;22.92;52.57;102847.53;4986521;28;20136;-34
2023/09/04 03:12:30;;;;;;;1.77;1.48;;;;;;;22.89;52.38;102845.06;4986505;28;20165;-34
2023/09/04 03:14:57;;;;;;;1.92;1.20;;;;;;;22.89;52.30;102836.94;4983398;28;20054;-34
2023/09/04 03:17:25;;;;;;;1.42;1.33;;;;;;;22.88;52.17;102835.25;4987148;28;20050;-34
2023/09/04 03:19:55;;;;;;;1.73;1.10;;;;;;;22.87;52.48;102839.81;4982300;28;20045;-34
2023/09/04 03:22:22;;;;;;;1.65;1.10;;;;;;;22.86;52.56;102837.22;4984935;28;20069;-34
2023/09/04 03:24:49;;;;;;;1.30;0.93;;;;;;;22.85;52.68;102833.66;4986892;28;20062;-34
2023/09/04 03:27:16;;;;;;;2.08;1.50;;;;;;;22.84;52.55;102833.81;4984672;28;20128;-34
2023/09/04 03:29:43;;;;;;;1.20;1.00;;;;;;;22.83;52.20;102824.81;4986069;28;20034;-34
2023/09/04 03:32:10;;;;;;;1.70;1.42;;;;;;;22.82;52.67;102833.06;4987177;28;20055;-34
2023/09/04 03:34:37;;;;;;;1.98;1.40;;;;;;;22.81;52.87;102825.97;4987773;28;20046;-34
2023/09/04 03:37:04;;;;;;;1.42;1.02;;;;;;;22.81;52.62;102823.25;4985132;28;20051;-34
2023/09/04 03:39:37;;;;;;;1.42;1.10;;;;;;;22.79;52.38;102831.50;4983094;28;20121;-34
2023/09/04 03:42:05;;;;;;;1.63;1.20;;;;;;;22.79;52.65;102825.22;4984225;28;20054;-34
2023/09/04 03:44:31;;;;;;;1.17;1.02;;;;;;;22.79;52.66;102827.94;4981502;28;20046;-34
2023/09/04 03:46:58;;;;;;;1.40;1.10;;;;;;;22.77;52.40;102825.38;4989846;28;20350;-34
2023/09/04 03:49:25;;;;;;;1.58;1.10;;;;;;;22.76;52.73;102820.13;4987520;28;20302;-34
2023/09/04 03:51:52;;;;;;;1.33;1.20;;;;;;;22.75;52.55;102816.53;4984310;28;20065;-34
2023/09/04 03:54:19;;;;;;;1.23;1.10;;;;;;;22.75;52.45;102813.84;4982748;28;20085;-34
2023/09/04 03:56:46;;;;;;;1.67;1.23;;;;;;;22.74;52.83;102816.69;4986345;28;20074;-34
2023/09/04 03:59:12;;;;;;;0.95;0.88;;;;;;;22.74;52.91;102816.69;4985661;28;20046;-34
2023/09/04 04:01:40;;;;;;;1.33;1.20;;;;;;;22.73;52.45;102815.84;4982866;28;20117;-34
2023/09/04 04:04:09;;;;;;;1.00;0.93;;;;;;;22.72;52.73;102808.72;4982811;28;20082;-34
2023/09/04 04:06:36;;;;;;;1.42;1.10;;;;;;;22.72;52.43;102819.53;4983962;28;20434;-34
2023/09/04 04:09:03;;;;;;;1.75;1.20;;;;;;;22.71;52.60;102808.84;4985323;28;20108;-34
2023/09/04 04:11:29;;;;;;;1.83;1.00;;;;;;;22.70;52.55;102812.53;4987970;28;20089;-34
2023/09/04 04:13:56;;;;;;;1.92;1.52;;;;;;;22.69;52.48;102806.28;4984551;28;20050;-34
2023/09/04 04:16:23;;;;;;;2.58;1.60;;;;;;;22.69;52.54;102810.84;4983078;28;20120;-33
2023/09/04 04:18:49;;;;;;;1.88;1.33;;;;;;;22.67;52.63;102803.72;4987005;28;20137;-34
2023/09/04 04:21:16;;;;;;;1.38;1.15;;;;;;;22.67;52.68;102811.84;4984908;28;20051;-34
2023/09/04 04:23:42;;;;;;;2.47;1.73;;;;;;;22.67;52.83;102805.56;4991698;28;20046;-34
2023/09/04 04:26:12;;;;;;;5.10;2.20;;;;;;;22.65;52.68;102815.66;4983495;28;20355;-34
2023/09/04 04:28:39;;;;;;;3.45;1.67;;;;;;;22.63;52.52;102813.09;4981496;28;20363;-34
2023/09/04 04:31:05;;;;;;;2.67;1.58;;;;;;;22.63;52.62;102805.00;4980997;28;20129;-34
2023/09/04 04:33:32;;;;;;;2.10;1.35;;;;;;;22.61;52.65;102803.41;4983995;28;20142;-34
2023/09/04 04:35:58;;;;;;;3.33;1.75;;;;;;;22.60;52.97;102802.56;4981574;28;20457;-34
2023/09/04 04:38:25;;;;;;;2.53;1.55;;;;;;;22.59;52.47;102800.84;4977979;28;20065;-34
2023/09/04 04:40:52;;;;;;;3.03;1.40;;;;;;;22.59;52.88;102797.28;4982728;28;20054;-34
2023/09/04 04:43:19;;;;;;;2.28;1.70;;;;;;;22.56;52.93;102794.88;4985231;28;20054;-34
2023/09/04 04:45:45;;;;;;;1.92;1.55;;;;;;;22.56;52.61;102792.16;4981194;28;20050;-33
2023/09/04 04:48:12;;;;;;;3.28;1.80;;;;;;;22.55;52.59;102790.44;4981970;28;20054;-33
2023/09/04 04:50:38;;;;;;;3.58;1.70;;;;;;;22.54;52.60;102791.44;4979589;28;20053;-34
2023/09/04 04:53:05;;;;;;;2.88;1.83;;;;;;;22.53;52.95;102792.44;4982557;28;20132;-34
2023/09/04 04:55:32;;;;;;;2.03;1.65;;;;;;;22.52;52.88;102782.63;4988191;28;20129;-34
2023/09/04 04:57:58;;;;;;;2.10;1.65;;;;;;;22.51;52.37;102780.88;4988946;28;20054;-34
2023/09/04 05:00:25;;;;;;;2.83;1.90;;;;;;;22.50;53.06;102780.03;4986699;28;20097;-34
2023/09/04 05:02:52;;;;;;;2.05;1.50;;;;;;;22.50;52.74;102776.47;4983519;28;20050;-34
2023/09/04 05:05:19;;;;;;;2.33;1.70;;;;;;;22.49;52.61;102778.31;4981642;28;20054;-34
2023/09/04 05:07:45;;;;;;;3.42;1.90;;;;;;;22.49;52.87;102780.19;4980803;28;20118;-34
2023/09/04 05:10:12;;;;;;;2.35;1.65;;;;;;;22.47;52.62;102772.19;4985193;28;20046;-34
2023/09/04 05:12:39;;;;;;;3.42;1.67;;;;;;;22.47;52.79;102771.34;4986443;28;20057;-34
2023/09/04 05:15:06;;;;;;;2.53;1.75;;;;;;;22.47;52.68;102779.44;4986381;28;20124;-34
2023/09/04 05:17:33;;;;;;;2.35;1.63;;;;;;;22.47;52.96;102787.56;4986092;28;20090;-34
2023/09/04 05:19:59;;;;;;;4.80;1.65;;;;;;;22.47;52.89;102787.56;4984861;28;20389;-34
2023/09/04 05:22:26;;;;;;;2.45;1.75;;;;;;;22.47;52.65;102785.69;4981592;28;20059;-34
2023/09/04 05:24:53;;;;;;;2.83;1.77;;;;;;;22.48;53.12;102795.53;4983477;28;20455;-34
2023/09/04 05:27:20;;;;;;;2.47;1.70;;;;;;;22.48;52.73;102794.69;4983791;28;20130;-34
2023/09/04 05:29:46;;;;;;;2.20;1.60;;;;;;;22.50;52.52;102804.34;4983848;28;20038;-33
2023/09/04 05:32:13;;;;;;;3.33;1.90;;;;;;;22.53;52.85;102806.78;4980309;28;20066;-34
2023/09/04 05:34:40;;;;;;;2.95;1.80;;;;;;;22.56;52.70;102814.63;4983081;28;20046;-34
2023/09/04 05:37:11;;;;;;;2.40;1.73;;;;;;;22.58;52.71;102809.94;4978598;28;20086;-33
2023/09/04 05:39:38;;;;;;;2.67;1.75;;;;;;;22.60;52.77;102807.97;4979292;28;20046;-33
2023/09/04 05:42:05;;;;;;;2.13;1.60;;;;;;;22.61;52.41;102823.19;4980485;28;20049;-33
2023/09/04 05:44:31;;;;;;;2.60;1.80;;;;;;;22.61;52.59;102820.47;4980745;28;20054;-33
2023/09/04 05:47:00;;;;;;;2.53;1.67;;;;;;;22.61;52.37;102817.78;4985222;28;20058;-34
2023/09/04 05:49:26;;;;;;;1.95;1.75;;;;;;;22.62;52.28;102816.78;4980385;28;20521;-34
2023/09/04 05:51:54;;;;;;;2.65;1.63;;;;;;;22.63;52.41;102815.81;4975392;28;20354;-34
2023/09/04 05:54:22;;;;;;;2.40;1.75;;;;;;;22.62;52.40;102814.06;4981323;28;20054;-34
2023/09/04 05:56:49;;;;;;;3.47;1.85;;;;;;;22.62;52.46;102815.91;4981468;28;20054;-34
2023/09/04 05:59:16;;;;;;;2.33;1.52;;;;;;;22.62;52.31;102815.91;5019360;28;20050;-35
2023/09/04 06:01:42;;;;;;;2.53;1.67;;;;;;;22.62;52.49;102813.22;4985326;28;20427;-35
2023/09/04 06:04:11;;;;;;;2.15;1.70;;;;;;;22.62;52.26;102808.66;4984843;28;20061;-35
2023/09/04 06:06:38;;;;;;;3.28;1.98;;;;;;;22.62;52.35;102807.81;4984902;28;20058;-35
2023/09/04 06:09:06;;;;;;;1.95;1.48;;;;;;;22.64;52.43;102808.56;4978710;28;20442;-35
2023/09/04 06:11:32;;;;;;;2.15;1.70;;;;;;;22.63;52.12;102804.13;4983514;28;21506;-35
2023/09/04 06:13:59;;;;;;;2.33;1.73;;;;;;;22.63;52.31;102804.13;4979933;28;20217;-34
2023/09/04 06:16:26;;;;;;;2.78;1.90;;;;;;;22.64;52.25;102805.84;4979523;28;20050;-34
2023/09/04 06:18:53;;;;;;;2.17;1.65;;;;;;;22.65;52.15;102812.97;4981565;28;20050;-34
2023/09/04 06:21:19;;;;;;;2.97;1.70;;;;;;;22.67;52.56;102797.44;4977718;28;20049;-34
2023/09/04 06:23:46;;;;;;;3.80;1.88;;;;;;;22.70;52.39;102799.03;4981577;28;20458;-34
2023/09/04 06:26:13;;;;;;;1.98;1.58;;;;;;;22.70;52.43;102788.22;4982779;28;20055;-35
2023/09/04 06:28:39;;;;;;;3.00;2.03;;;;;;;22.72;52.05;102794.34;4982452;28;20046;-34
2023/09/04 06:31:06;;;;;;;3.88;1.80;;;;;;;22.73;51.92;102788.81;4982222;28;20042;-34
2023/09/04 06:33:36;;;;;;;2.13;1.77;;;;;;;22.75;52.23;102797.59;4983875;28;20345;-35
2023/09/04 06:36:04;;;;;;;3.25;2.00;;;;;;;22.77;52.28;102790.22;4987252;28;20053;-35
2023/09/04 06:38:31;;;;;;;2.53;1.70;;;;;;;22.78;51.76;102797.34;4983224;28;20082;-35
2023/09/04 06:40:57;;;;;;;2.28;1.80;;;;;;;22.81;51.98;102798.94;4985177;28;20046;-35
2023/09/04 06:43:25;;;;;;;2.38;1.73;;;;;;;22.82;51.78;102801.47;4980144;28;20106;-35
2023/09/04 06:45:52;;;;;;;3.90;2.88;;;;;;;22.84;51.97;102795.97;4979763;28;20073;-35
2023/09/04 06:48:19;;;;;;;2.25;1.65;;;;;;;22.84;52.23;102804.91;4979814;28;20061;-35
2023/09/04 06:50:49;;;;;;;1.50;1.35;;;;;;;22.85;51.91;102803.91;5011403;28;20051;-35
2023/09/04 06:53:16;;;;;;;2.78;1.45;;;;;;;22.86;51.45;102796.66;4978969;28;20051;-35
2023/09/04 06:55:43;;;;;;;2.92;1.50;;;;;;;22.86;51.61;102789.41;4979978;28;20053;-35
2023/09/04 06:58:10;;;;;;;2.55;1.67;;;;;;;22.88;51.43;102797.38;4980118;28;20494;-35
2023/09/04 07:00:37;;;;;;;2.28;1.70;;;;;;;22.87;51.98;102795.66;4983102;28;20130;-35
2023/09/04 07:03:04;;;;;;;2.10;1.60;;;;;;;22.87;51.88;102796.53;4983259;28;20112;-35
2023/09/04 07:05:32;;;;;;;3.17;1.88;;;;;;;22.86;51.73;102792.09;4988049;28;20054;-35
2023/09/04 07:07:58;;;;;;;2.22;1.50;;;;;;;22.87;51.89;102791.13;4987270;28;20054;-35
2023/09/04 07:10:25;;;;;;;2.33;1.45;;;;;;;22.87;51.35;102793.84;4986805;28;20046;-35
2023/09/04 07:12:52;;;;;;;2.20;1.70;;;;;;;22.87;51.43;102791.13;4985073;28;20140;-35
2023/09/04 07:15:19;;;;;;;2.20;1.77;;;;;;;22.88;51.39;102797.38;4981766;28;20114;-35
2023/09/04 07:17:45;;;;;;;1.63;1.50;;;;;;;22.88;51.96;102792.84;4981661;28;20097;-35
2023/09/04 07:20:12;;;;;;;1.95;1.55;;;;;;;22.89;51.63;102793.69;4981604;28;20058;-35
2023/09/04 07:22:39;;;;;;;1.90;1.55;;;;;;;22.89;51.45;102782.88;4982069;28;20050;-35
2023/09/04 07:25:06;;;;;;;2.47;1.67;;;;;;;22.89;51.50;102777.47;4984616;28;20074;-35
2023/09/04 07:27:33;;;;;;;2.60;1.90;;;;;;;22.89;51.95;102781.00;4979120;28;20434;-35
2023/09/04 07:30:00;;;;;;;2.28;1.73;;;;;;;22.89;51.73;102774.75;4988165;28;20042;-35
2023/09/04 07:32:26;;;;;;;1.95;1.60;;;;;;;22.90;51.52;102773.75;4987327;28;20128;-35
2023/09/04 07:34:56;;;;;;;2.60;1.70;;;;;;;22.91;51.62;102772.78;4982617;28;20051;-34
2023/09/04 07:37:25;;;;;;;2.20;1.70;;;;;;;22.91;51.33;102775.50;4984758;28;20050;-35
2023/09/04 07:39:53;;;;;;;2.88;1.50;;;;;;;22.93;51.63;102770.81;4981935;28;20042;-35
2023/09/04 07:42:21;;;;;;;2.67;1.83;;;;;;;22.93;51.69;102765.41;4984322;28;20462;-35
2023/09/04 07:44:48;;;;;;;2.28;1.50;;;;;;;22.95;51.16;102766.09;4985255;28;20051;-35
2023/09/04 07:47:15;;;;;;;1.83;1.50;;;;;;;22.96;51.49;102775.94;5013302;28;20054;-35
2023/09/04 07:49:42;;;;;;;2.78;1.70;;;;;;;22.97;51.29;102774.09;4982777;28;20058;-33
2023/09/04 07:52:09;;;;;;;2.65;1.60;;;;;;;22.97;51.39;102782.22;4988764;28;20069;-33
2023/09/04 07:54:35;;;;;;;2.60;1.60;;;;;;;22.98;51.60;102784.75;4981472;28;20100;-33
2023/09/04 07:57:04;;;;;;;2.67;1.73;;;;;;;22.98;51.49;102782.06;5015064;28;20050;-34
2023/09/04 07:59:31;;;;;;;2.10;1.60;;;;;;;22.99;51.55;102783.75;4983629;28;20125;-34
2023/09/04 08:01:58;;;;;;;1.40;1.30;;;;;;;23.00;51.22;102790.91;4985341;28;20049;-34
2023/09/04 08:04:26;;;;;;;2.63;1.65;;;;;;;23.02;51.47;102793.47;4982633;28;20355;-34
2023/09/04 08:06:55;;;;;;;2.55;1.50;;;;;;;23.02;51.41;102794.31;4983514;28;20354;-34
2023/09/04 08:09:22;;;;;;;1.92;1.60;;;;;;;23.03;51.50;102789.75;4981334;28;20137;-34
2023/09/04 08:11:48;;;;;;;2.08;1.58;;;;;;;23.04;51.45;102789.63;4987417;28;20096;-38
2023/09/04 08:14:15;;;;;;;2.15;1.58;;;;;;;23.05;51.48;102802.16;4985245;28;20366;-34
2023/09/04 08:16:42;;;;;;;2.80;1.70;;;;;;;23.06;51.17;102787.63;4982244;28;20042;-33
2023/09/04 08:19:08;;;;;;;2.55;1.55;;;;;;;23.07;51.50;102788.47;4982743;28;20522;-34
2023/09/04 08:21:35;;;;;;;2.67;1.52;;;;;;;23.08;51.26;102790.22;4981848;28;20498;-34
2023/09/04 08:24:02;;;;;;;2.88;1.90;;;;;;;23.09;51.43;102784.66;4983191;28;20058;-33
2023/09/04 08:26:31;;;;;;;2.25;1.80;;;;;;;23.09;51.15;102784.66;4982511;28;20046;-33
2023/09/04 08:28:58;;;;;;;2.90;1.70;;;;;;;23.10;51.51;102780.09;4982072;28;20469;-33
2023/09/04 08:31:25;;;;;;;2.97;1.70;;;;;;;23.12;51.42;102792.50;4977461;28;20117;-33
2023/09/04 08:33:51;;;;;;;1.83;1.38;;;;;;;23.12;51.46;102780.81;4983729;28;20060;-33
2023/09/04 08:36:18;;;;;;;1.88;1.60;;;;;;;23.13;51.38;102785.22;4986316;28;20385;-34
2023/09/04 08:38:45;;;;;;;2.88;1.92;;;;;;;23.14;51.46;102790.47;4980763;28;20055;-34
2023/09/04 08:41:16;;;;;;;2.10;1.70;;;;;;;23.15;51.07;102786.78;4984490;28;20065;-33
2023/09/04 08:43:45;;;;;;;2.85;2.00;;;;;;;23.17;51.02;102788.50;4982667;28;20050;-35
2023/09/04 08:46:15;;;;;;;2.33;1.60;;;;;;;23.19;51.05;102786.50;4984556;28;20064;-34
2023/09/04 08:48:44;;;;;;;2.00;1.50;;;;;;;23.19;51.54;102790.06;4987256;28;20054;-33
2023/09/04 08:51:11;;;;;;;1.92;1.48;;;;;;;23.21;51.23;102787.22;4980683;28;20056;-34
2023/09/04 08:53:38;;;;;;;2.22;1.60;;;;;;;23.22;51.16;102799.75;4983427;28;20101;-34
2023/09/04 08:56:05;;;;;;;3.17;1.70;;;;;;;23.23;50.62;102785.22;4983850;28;20046;-33
2023/09/04 08:58:32;;;;;;;2.70;1.73;;;;;;;23.25;50.77;102788.66;4981733;28;20050;-34
2023/09/04 09:00:59;;;;;;;2.70;1.75;;;;;;;23.26;51.05;102768.72;4981434;28;20841;-34
2023/09/04 09:03:27;;;;;;;2.47;2.00;;;;;;;23.26;50.90;102766.00;4982365;28;20132;-34
2023/09/04 09:05:56;;;;;;;3.78;2.20;;;;;;;23.27;50.87;102760.44;4983937;28;20052;-34
2023/09/04 09:08:24;;;;;;;3.00;1.80;;;;;;;23.29;51.19;102758.47;4983536;28;20121;-33
2023/09/04 09:10:52;;;;;;;2.22;1.75;;;;;;;23.31;51.10;102752.91;4984499;28;20501;-33
2023/09/04 09:13:20;;;;;;;3.63;1.65;;;;;;;23.32;51.21;102757.34;5011531;28;20069;-33
2023/09/04 09:15:47;;;;;;;2.55;1.90;;;;;;;23.34;50.81;102760.75;4980850;28;20078;-34
2023/09/04 09:18:37;;;;;;;2.53;1.90;;;;;;;23.35;51.21;102757.03;4998733;28;20093;-33
2023/09/04 09:21:24;;;;;;;2.70;1.98;;;;;;;23.37;50.72;102761.31;4984982;28;20434;-34
2023/09/04 09:24:08;;;;;;;3.28;1.92;;;;;;;23.39;51.12;102767.41;5013698;28;20295;-34
2023/09/04 09:26:37;;;;;;;3.95;2.22;;;;;;;23.44;50.64;102768.84;4986696;28;20059;-34
2023/09/04 09:29:06;;;;;;;3.70;2.20;;;;;;;23.45;51.00;102774.13;4983438;28;20501;-34
2023/09/04 09:31:34;;;;;;;3.00;2.15;;;;;;;23.48;50.70;102772.97;5010193;28;20405;-34
2023/09/04 09:34:01;;;;;;;3.95;2.10;;;;;;;23.50;50.74;102768.28;4978981;28;20410;-34
2023/09/04 09:36:28;;;;;;;3.40;2.03;;;;;;;23.54;51.28;102773.25;4979639;28;20046;-34
2023/09/04 09:38:54;;;;;;;2.67;1.70;;;;;;;23.58;51.11;102768.44;4984761;28;20120;-34
2023/09/04 09:41:23;;;;;;;4.13;2.13;;;;;;;23.63;51.10;102764.28;4983909;28;20482;-35
2023/09/04 09:43:50;;;;;;;2.45;1.73;;;;;;;23.68;51.37;102760.31;4979386;28;20347;-34
2023/09/04 09:46:16;;;;;;;3.03;1.98;;;;;;;23.74;51.01;102754.34;4979700;28;20057;-34
2023/09/04 09:48:45;;;;;;;2.97;1.92;;;;;;;23.79;51.14;102758.31;4982501;28;20403;-34
2023/09/04 09:51:13;;;;;;;2.67;1.73;;;;;;;23.85;51.39;102757.72;4984656;28;20054;-34
2023/09/04 09:53:53;;;;;;;2.92;2.08;;;;;;;23.92;51.74;102754.41;4984593;28;20494;-34
2023/09/04 09:56:20;;;;;;;3.38;1.40;;;;;;;24.00;51.26;102749.13;4977608;28;20051;-34
2023/09/04 09:58:48;;;;;;;3.88;1.85;;;;;;;24.04;51.31;102751.41;4983007;28;20383;-34
2023/09/04 10:01:17;;;;;;;3.03;2.03;;;;;;;24.10;51.13;102745.41;4987590;28;20057;-34
2023/09/04 10:03:46;;;;;;;3.22;1.92;;;;;;;24.17;51.29;102745.66;4984647;28;20438;-34
2023/09/04 10:06:23;;;;;;;3.20;1.98;;;;;;;24.22;50.98;102739.81;4980943;28;20070;-33
2023/09/04 10:08:51;;;;;;;2.40;1.80;;;;;;;24.27;50.51;102734.78;4982948;28;20430;-33
2023/09/04 10:11:18;;;;;;;2.80;1.80;;;;;;;24.32;50.35;102735.19;4986302;28;20054;-34
2023/09/04 10:14:02;;;;;;;3.85;2.00;;;;;;;24.35;50.18;102724.91;4985273;28;20050;-34
2023/09/04 10:16:39;;;;;;;2.22;1.80;;;;;;;24.40;50.99;102716.34;4981841;28;20050;-34
2023/09/04 10:19:10;;;;;;;2.45;1.88;;;;;;;24.43;50.44;102724.19;4982585;28;20430;-34
2023/09/04 10:21:42;;;;;;;3.75;1.95;;;;;;;24.49;50.56;102726.31;4982401;28;20083;-34
2023/09/04 10:24:12;;;;;;;2.83;1.75;;;;;;;24.53;50.45;102722.28;4995853;28;20050;-34
2023/09/04 10:26:55;;;;;;;2.78;1.75;;;;;;;24.57;50.15;102706.56;4983758;28;20050;-34
2023/09/04 10:29:26;;;;;;;2.67;1.88;;;;;;;24.63;50.25;102705.94;4978309;28;20050;-34
2023/09/04 10:31:54;;;;;;;4.03;1.75;;;;;;;24.67;49.90;102712.78;4983295;28;20046;-34
2023/09/04 10:34:21;;;;;;;2.28;1.80;;;;;;;24.71;50.18;102702.47;4985400;28;20105;-34
2023/09/04 10:36:48;;;;;;;4.30;1.92;;;;;;;24.75;49.82;102698.44;4980586;28;20046;-34
2023/09/04 10:39:15;;;;;;;3.13;2.05;;;;;;;24.79;50.19;102707.97;4985637;28;20349;-34
2023/09/04 10:41:42;;;;;;;2.95;2.03;;;;;;;24.84;49.65;102701.09;4983056;28;20050;-34
2023/09/04 10:44:11;;;;;;;2.58;1.88;;;;;;;24.89;50.20;102699.78;5019132;28;20050;-34
2023/09/04 10:46:55;;;;;;;2.95;1.95;;;;;;;24.92;49.68;102696.75;5021536;28;20082;-34
2023/09/04 10:49:31;;;;;;;1.80;1.50;;;;;;;24.96;49.56;102696.28;5020379;28;20141;-34
2023/09/04 10:51:57;;;;;;;2.03;1.50;;;;;;;24.99;49.76;102689.72;4985516;28;20042;-34
2023/09/04 10:54:25;;;;;;;3.38;1.75;;;;;;;25.02;49.48;102686.69;4984431;28;20438;-34
2023/09/04 10:56:52;;;;;;;2.28;1.77;;;;;;;25.05;49.65;102691.81;4985102;28;20050;-34
2023/09/04 10:59:19;;;;;;;5.45;1.80;;;;;;;25.07;49.24;102679.78;4985450;28;20382;-34
2023/09/04 11:01:45;;;;;;;3.08;1.70;;;;;;;25.10;49.14;102673.22;4986048;28;20097;-34
2023/09/04 11:04:44;;;;;;;2.13;1.73;;;;;;;25.11;49.64;102681.19;5018379;28;20060;-34
2023/09/04 11:07:19;;;;;;;3.20;2.20;;;;;;;25.17;49.27;102674.31;4988855;28;20050;-34
2023/09/04 11:10:06;;;;;;;3.38;1.60;;;;;;;25.16;49.36;102663.59;4985419;28;20051;-34
2023/09/04 11:12:35;;;;;;;1.67;1.42;;;;;;;25.19;49.21;102666.00;4990015;28;20057;-34
2023/09/04 11:15:11;;;;;;;3.03;1.85;;;;;;;25.19;49.28;102663.28;4985791;28;20065;-34
2023/09/04 11:17:42;;;;;;;3.20;1.70;;;;;;;25.19;49.43;102669.56;4989050;28;20466;-34
2023/09/04 11:20:10;;;;;;;2.95;1.80;;;;;;;25.21;48.93;102669.44;4988444;28;20043;-34
2023/09/04 11:22:36;;;;;;;2.17;1.80;;;;;;;25.21;49.25;102673.00;4982475;28;20047;-34
2023/09/04 11:25:03;;;;;;;4.55;2.00;;;;;;;25.23;49.43;102667.38;5015954;28;20053;-34
2023/09/04 11:27:31;;;;;;;2.30;1.48;;;;;;;25.25;49.08;102665.38;4987130;28;20134;-34